sensor_id;sensor_type;location;lat;lon;timestamp;P1;durP1;ratioP1;P2;durP2;ratioP2
20042;SDS011;10182;52.896;6.496;2022-08-01T00:02:44;15.30;;;11.63;;
20042;SDS011;10182;52.896;6.496;2022-08-01T00:07:46;14.80;;;11.77;;
20042;SDS011;10182;52.896;6.496;2022-08-01T00:12:48;15.53;;;11.97;;
20042;SDS011;10182;52.896;6.496;2022-08-01T00:17:51;13.53;;;10.23;;
20042;SDS011;10182;52.896;6.496;2022-08-01T00:22:53;10.87;;;9.60;;
20042;SDS011;10182;52.896;6.496;2022-08-01T00:27:54;12.43;;;10.33;;
20042;SDS011;10182;52.896;6.496;2022-08-01T00:32:57;12.50;;;10.27;;
20042;SDS011;10182;52.896;6.496;2022-08-01T00:37:59;12.50;;;10.60;;
20042;SDS011;10182;52.896;6.496;2022-08-01T00:43:01;11.80;;;9.60;;
20042;SDS011;10182;52.896;6.496;2022-08-01T00:48:04;13.17;;;9.97;;
20042;SDS011;10182;52.896;6.496;2022-08-01T00:53:06;12.83;;;10.40;;
20042;SDS011;10182;52.896;6.496;2022-08-01T00:58:08;12.07;;;9.80;;
20042;SDS011;10182;52.896;6.496;2022-08-01T01:03:11;11.20;;;9.53;;
20042;SDS011;10182;52.896;6.496;2022-08-01T01:08:13;11.40;;;9.50;;
20042;SDS011;10182;52.896;6.496;2022-08-01T01:13:20;12.63;;;9.47;;
20042;SDS011;10182;52.896;6.496;2022-08-01T01:18:35;11.03;;;9.47;;
20042;SDS011;10182;52.896;6.496;2022-08-01T01:23:46;11.43;;;8.57;;
20042;SDS011;10182;52.896;6.496;2022-08-01T01:29:05;8.47;;;7.30;;
20042;SDS011;10182;52.896;6.496;2022-08-01T01:34:11;5.00;;;4.50;;
20042;SDS011;10182;52.896;6.496;2022-08-01T01:39:15;5.57;;;4.80;;
20042;SDS011;10182;52.896;6.496;2022-08-01T01:44:19;5.00;;;4.17;;
20042;SDS011;10182;52.896;6.496;2022-08-01T01:49:21;3.77;;;3.47;;
20042;SDS011;10182;52.896;6.496;2022-08-01T01:54:28;5.10;;;4.37;;
20042;SDS011;10182;52.896;6.496;2022-08-01T01:59:33;4.47;;;4.07;;
20042;SDS011;10182;52.896;6.496;2022-08-01T02:04:37;6.03;;;3.70;;
20042;SDS011;10182;52.896;6.496;2022-08-01T02:09:43;6.17;;;3.97;;
20042;SDS011;10182;52.896;6.496;2022-08-01T02:14:48;5.27;;;4.07;;
20042;SDS011;10182;52.896;6.496;2022-08-01T02:19:54;5.20;;;4.27;;
20042;SDS011;10182;52.896;6.496;2022-08-01T02:25:02;4.27;;;3.60;;
20042;SDS011;10182;52.896;6.496;2022-08-01T02:30:08;8.63;;;5.63;;
20042;SDS011;10182;52.896;6.496;2022-08-01T02:35:13;5.50;;;4.90;;
20042;SDS011;10182;52.896;6.496;2022-08-01T02:40:20;8.20;;;4.67;;
20042;SDS011;10182;52.896;6.496;2022-08-01T02:45:25;11.30;;;4.80;;
20042;SDS011;10182;52.896;6.496;2022-08-01T02:50:28;4.03;;;2.87;;
20042;SDS011;10182;52.896;6.496;2022-08-01T02:55:33;4.83;;;2.70;;
20042;SDS011;10182;52.896;6.496;2022-08-01T03:00:37;4.33;;;3.17;;
20042;SDS011;10182;52.896;6.496;2022-08-01T03:05:41;6.40;;;3.23;;
20042;SDS011;10182;52.896;6.496;2022-08-01T03:10:45;5.60;;;3.13;;
20042;SDS011;10182;52.896;6.496;2022-08-01T03:15:49;4.87;;;3.23;;
20042;SDS011;10182;52.896;6.496;2022-08-01T03:20:52;4.23;;;3.00;;
20042;SDS011;10182;52.896;6.496;2022-08-01T03:25:57;5.23;;;2.63;;
20042;SDS011;10182;52.896;6.496;2022-08-01T03:31:01;5.57;;;2.70;;
20042;SDS011;10182;52.896;6.496;2022-08-01T03:36:04;5.70;;;2.70;;
20042;SDS011;10182;52.896;6.496;2022-08-01T03:41:09;5.10;;;2.90;;
20042;SDS011;10182;52.896;6.496;2022-08-01T03:46:17;6.63;;;3.23;;
20042;SDS011;10182;52.896;6.496;2022-08-01T03:51:23;5.00;;;3.30;;
20042;SDS011;10182;52.896;6.496;2022-08-01T03:56:25;4.63;;;3.10;;
20042;SDS011;10182;52.896;6.496;2022-08-01T04:01:32;12.50;;;3.97;;
20042;SDS011;10182;52.896;6.496;2022-08-01T04:06:37;8.20;;;3.87;;
20042;SDS011;10182;52.896;6.496;2022-08-01T04:11:39;5.83;;;3.13;;
20042;SDS011;10182;52.896;6.496;2022-08-01T04:16:42;9.00;;;3.87;;
20042;SDS011;10182;52.896;6.496;2022-08-01T04:21:44;8.30;;;4.30;;
20042;SDS011;10182;52.896;6.496;2022-08-01T04:26:46;9.47;;;4.10;;
20042;SDS011;10182;52.896;6.496;2022-08-01T04:31:52;8.70;;;3.53;;
20042;SDS011;10182;52.896;6.496;2022-08-01T04:36:57;7.27;;;3.80;;
20042;SDS011;10182;52.896;6.496;2022-08-01T04:42:00;12.53;;;4.63;;
20042;SDS011;10182;52.896;6.496;2022-08-01T04:47:05;8.97;;;4.43;;
20042;SDS011;10182;52.896;6.496;2022-08-01T04:52:07;10.53;;;4.50;;
20042;SDS011;10182;52.896;6.496;2022-08-01T04:57:10;10.57;;;4.80;;
20042;SDS011;10182;52.896;6.496;2022-08-01T05:02:14;11.53;;;4.93;;
20042;SDS011;10182;52.896;6.496;2022-08-01T05:07:17;7.10;;;4.03;;
20042;SDS011;10182;52.896;6.496;2022-08-01T05:12:18;12.83;;;4.27;;
20042;SDS011;10182;52.896;6.496;2022-08-01T05:17:22;10.30;;;4.10;;
20042;SDS011;10182;52.896;6.496;2022-08-01T05:22:23;15.47;;;4.90;;
20042;SDS011;10182;52.896;6.496;2022-08-01T05:27:25;10.77;;;4.30;;
20042;SDS011;10182;52.896;6.496;2022-08-01T05:32:28;10.27;;;4.63;;
20042;SDS011;10182;52.896;6.496;2022-08-01T05:37:32;14.07;;;4.73;;
20042;SDS011;10182;52.896;6.496;2022-08-01T05:42:33;13.93;;;6.07;;
20042;SDS011;10182;52.896;6.496;2022-08-01T05:47:36;9.23;;;3.80;;
20042;SDS011;10182;52.896;6.496;2022-08-01T05:52:39;10.03;;;4.53;;
20042;SDS011;10182;52.896;6.496;2022-08-01T05:57:40;10.60;;;5.07;;
20042;SDS011;10182;52.896;6.496;2022-08-01T06:02:43;12.50;;;4.73;;
20042;SDS011;10182;52.896;6.496;2022-08-01T06:07:45;11.10;;;4.17;;
20042;SDS011;10182;52.896;6.496;2022-08-01T06:12:47;12.60;;;4.60;;
20042;SDS011;10182;52.896;6.496;2022-08-01T06:17:50;20.27;;;4.53;;
20042;SDS011;10182;52.896;6.496;2022-08-01T06:22:51;18.20;;;4.63;;
20042;SDS011;10182;52.896;6.496;2022-08-01T06:27:54;13.80;;;4.63;;
20042;SDS011;10182;52.896;6.496;2022-08-01T06:32:57;15.83;;;4.00;;
20042;SDS011;10182;52.896;6.496;2022-08-01T06:38:00;17.60;;;4.77;;
20042;SDS011;10182;52.896;6.496;2022-08-01T06:43:02;13.83;;;4.10;;
20042;SDS011;10182;52.896;6.496;2022-08-01T06:48:05;16.63;;;4.60;;
20042;SDS011;10182;52.896;6.496;2022-08-01T06:53:07;21.10;;;4.90;;
20042;SDS011;10182;52.896;6.496;2022-08-01T06:58:09;10.90;;;3.63;;
20042;SDS011;10182;52.896;6.496;2022-08-01T07:03:12;13.70;;;4.43;;
20042;SDS011;10182;52.896;6.496;2022-08-01T07:08:14;18.30;;;4.37;;
20042;SDS011;10182;52.896;6.496;2022-08-01T07:13:15;13.03;;;4.50;;
20042;SDS011;10182;52.896;6.496;2022-08-01T07:18:22;19.43;;;4.73;;
20042;SDS011;10182;52.896;6.496;2022-08-01T07:23:24;12.40;;;3.93;;
20042;SDS011;10182;52.896;6.496;2022-08-01T07:28:26;13.90;;;4.10;;
20042;SDS011;10182;52.896;6.496;2022-08-01T07:33:29;17.33;;;3.77;;
20042;SDS011;10182;52.896;6.496;2022-08-01T07:38:30;17.37;;;4.70;;
20042;SDS011;10182;52.896;6.496;2022-08-01T07:43:32;14.80;;;4.00;;
20042;SDS011;10182;52.896;6.496;2022-08-01T07:48:37;15.60;;;3.70;;
20042;SDS011;10182;52.896;6.496;2022-08-01T07:53:38;12.37;;;3.87;;
20042;SDS011;10182;52.896;6.496;2022-08-01T07:58:40;16.27;;;4.23;;
20042;SDS011;10182;52.896;6.496;2022-08-01T08:03:43;11.07;;;3.53;;
20042;SDS011;10182;52.896;6.496;2022-08-01T08:08:45;11.40;;;4.47;;
20042;SDS011;10182;52.896;6.496;2022-08-01T08:13:46;11.90;;;3.47;;
20042;SDS011;10182;52.896;6.496;2022-08-01T08:18:50;15.17;;;3.73;;
20042;SDS011;10182;52.896;6.496;2022-08-01T08:23:51;12.13;;;3.20;;
20042;SDS011;10182;52.896;6.496;2022-08-01T08:29:10;13.07;;;3.23;;
20042;SDS011;10182;52.896;6.496;2022-08-01T08:34:14;15.63;;;3.70;;
20042;SDS011;10182;52.896;6.496;2022-08-01T08:39:16;11.33;;;3.53;;
20042;SDS011;10182;52.896;6.496;2022-08-01T08:44:18;11.53;;;3.17;;
20042;SDS011;10182;52.896;6.496;2022-08-01T08:49:24;14.70;;;2.83;;
20042;SDS011;10182;52.896;6.496;2022-08-01T08:54:30;12.53;;;2.67;;
20042;SDS011;10182;52.896;6.496;2022-08-01T08:59:33;9.67;;;2.93;;
20042;SDS011;10182;52.896;6.496;2022-08-01T09:04:37;5.87;;;2.17;;
20042;SDS011;10182;52.896;6.496;2022-08-01T09:09:40;11.93;;;2.53;;
20042;SDS011;10182;52.896;6.496;2022-08-01T09:14:45;7.93;;;2.40;;
20042;SDS011;10182;52.896;6.496;2022-08-01T09:19:50;8.40;;;2.40;;
20042;SDS011;10182;52.896;6.496;2022-08-01T09:24:56;10.03;;;2.67;;
20042;SDS011;10182;52.896;6.496;2022-08-01T09:30:07;9.53;;;2.80;;
20042;SDS011;10182;52.896;6.496;2022-08-01T09:35:26;13.97;;;2.87;;
20042;SDS011;10182;52.896;6.496;2022-08-01T09:40:43;8.43;;;2.13;;
20042;SDS011;10182;52.896;6.496;2022-08-01T09:45:46;6.60;;;2.10;;
20042;SDS011;10182;52.896;6.496;2022-08-01T09:50:50;8.80;;;1.80;;
20042;SDS011;10182;52.896;6.496;2022-08-01T09:55:53;9.40;;;2.17;;
20042;SDS011;10182;52.896;6.496;2022-08-01T10:00:58;9.87;;;2.37;;
20042;SDS011;10182;52.896;6.496;2022-08-01T10:06:09;11.50;;;2.57;;
20042;SDS011;10182;52.896;6.496;2022-08-01T10:11:20;4.30;;;1.70;;
20042;SDS011;10182;52.896;6.496;2022-08-01T10:16:23;10.30;;;2.07;;
20042;SDS011;10182;52.896;6.496;2022-08-01T10:21:27;10.47;;;2.20;;
20042;SDS011;10182;52.896;6.496;2022-08-01T10:26:33;7.40;;;2.33;;
20042;SDS011;10182;52.896;6.496;2022-08-01T10:31:36;8.30;;;2.37;;
20042;SDS011;10182;52.896;6.496;2022-08-01T10:36:40;8.03;;;2.43;;
20042;SDS011;10182;52.896;6.496;2022-08-01T10:41:42;5.03;;;2.10;;
20042;SDS011;10182;52.896;6.496;2022-08-01T10:46:46;7.80;;;1.67;;
20042;SDS011;10182;52.896;6.496;2022-08-01T10:51:51;8.07;;;2.07;;
20042;SDS011;10182;52.896;6.496;2022-08-01T10:56:54;6.13;;;1.60;;
20042;SDS011;10182;52.896;6.496;2022-08-01T11:02:02;5.23;;;1.90;;
20042;SDS011;10182;52.896;6.496;2022-08-01T11:07:06;4.60;;;1.70;;
20042;SDS011;10182;52.896;6.496;2022-08-01T11:12:10;7.50;;;1.70;;
20042;SDS011;10182;52.896;6.496;2022-08-01T11:17:31;5.83;;;1.63;;
20042;SDS011;10182;52.896;6.496;2022-08-01T11:28:27;3.27;;;1.40;;
20042;SDS011;10182;52.896;6.496;2022-08-01T11:33:47;8.90;;;2.20;;
20042;SDS011;10182;52.896;6.496;2022-08-01T11:39:10;7.10;;;1.63;;
20042;SDS011;10182;52.896;6.496;2022-08-01T11:44:23;7.33;;;1.70;;
20042;SDS011;10182;52.896;6.496;2022-08-01T11:55:06;5.90;;;1.60;;
20042;SDS011;10182;52.896;6.496;2022-08-01T12:00:15;5.37;;;1.80;;
20042;SDS011;10182;52.896;6.496;2022-08-01T12:05:23;4.83;;;1.67;;
20042;SDS011;10182;52.896;6.496;2022-08-01T12:10:39;5.80;;;1.70;;
20042;SDS011;10182;52.896;6.496;2022-08-01T12:15:58;5.63;;;1.87;;
20042;SDS011;10182;52.896;6.496;2022-08-01T14:31:09;5.37;;;1.27;;
20042;SDS011;10182;52.896;6.496;2022-08-01T14:36:11;5.87;;;2.07;;
20042;SDS011;10182;52.896;6.496;2022-08-01T14:41:13;4.97;;;1.40;;
20042;SDS011;10182;52.896;6.496;2022-08-01T14:46:16;4.33;;;1.30;;
20042;SDS011;10182;52.896;6.496;2022-08-01T14:51:17;4.83;;;1.40;;
20042;SDS011;10182;52.896;6.496;2022-08-01T14:56:19;9.47;;;1.37;;
20042;SDS011;10182;52.896;6.496;2022-08-01T15:01:22;3.87;;;1.13;;
20042;SDS011;10182;52.896;6.496;2022-08-01T15:06:24;3.77;;;1.20;;
20042;SDS011;10182;52.896;6.496;2022-08-01T15:11:26;4.20;;;1.37;;
20042;SDS011;10182;52.896;6.496;2022-08-01T15:16:29;5.97;;;1.30;;
20042;SDS011;10182;52.896;6.496;2022-08-01T15:21:30;6.53;;;1.37;;
20042;SDS011;10182;52.896;6.496;2022-08-01T15:26:32;5.40;;;1.33;;
20042;SDS011;10182;52.896;6.496;2022-08-01T15:31:35;3.80;;;1.20;;
20042;SDS011;10182;52.896;6.496;2022-08-01T15:36:37;3.63;;;1.23;;
20042;SDS011;10182;52.896;6.496;2022-08-01T15:41:38;2.93;;;1.20;;
20042;SDS011;10182;52.896;6.496;2022-08-01T15:46:43;3.23;;;1.23;;
20042;SDS011;10182;52.896;6.496;2022-08-01T15:51:45;4.20;;;1.10;;
20042;SDS011;10182;52.896;6.496;2022-08-01T15:56:47;3.87;;;1.03;;
20042;SDS011;10182;52.896;6.496;2022-08-01T16:01:50;4.10;;;1.00;;
20042;SDS011;10182;52.896;6.496;2022-08-01T16:06:52;4.20;;;1.30;;
20042;SDS011;10182;52.896;6.496;2022-08-01T16:11:54;4.10;;;1.10;;
20042;SDS011;10182;52.896;6.496;2022-08-01T16:16:56;4.33;;;1.93;;
20042;SDS011;10182;52.896;6.496;2022-08-01T16:21:58;5.23;;;1.10;;
20042;SDS011;10182;52.896;6.496;2022-08-01T16:27:00;7.57;;;1.40;;
20042;SDS011;10182;52.896;6.496;2022-08-01T16:32:03;4.13;;;1.17;;
20042;SDS011;10182;52.896;6.496;2022-08-01T16:37:05;7.20;;;1.50;;
20042;SDS011;10182;52.896;6.496;2022-08-01T16:42:10;3.77;;;1.00;;
20042;SDS011;10182;52.896;6.496;2022-08-01T16:47:13;4.33;;;1.27;;
20042;SDS011;10182;52.896;6.496;2022-08-01T16:52:14;6.67;;;1.40;;
20042;SDS011;10182;52.896;6.496;2022-08-01T16:57:17;6.30;;;1.63;;
20042;SDS011;10182;52.896;6.496;2022-08-01T17:02:19;3.10;;;1.27;;
20042;SDS011;10182;52.896;6.496;2022-08-01T17:07:21;6.23;;;1.63;;
20042;SDS011;10182;52.896;6.496;2022-08-01T17:12:23;5.03;;;1.67;;
20042;SDS011;10182;52.896;6.496;2022-08-01T17:17:26;7.20;;;1.30;;
20042;SDS011;10182;52.896;6.496;2022-08-01T17:22:28;4.63;;;1.53;;
20042;SDS011;10182;52.896;6.496;2022-08-01T17:27:30;5.83;;;2.00;;
20042;SDS011;10182;52.896;6.496;2022-08-01T17:32:33;6.07;;;1.60;;
20042;SDS011;10182;52.896;6.496;2022-08-01T17:37:35;7.13;;;1.57;;
20042;SDS011;10182;52.896;6.496;2022-08-01T17:42:37;7.80;;;1.83;;
20042;SDS011;10182;52.896;6.496;2022-08-01T17:47:40;5.27;;;1.23;;
20042;SDS011;10182;52.896;6.496;2022-08-01T17:52:42;6.37;;;1.60;;
20042;SDS011;10182;52.896;6.496;2022-08-01T17:57:45;8.43;;;2.07;;
20042;SDS011;10182;52.896;6.496;2022-08-01T18:02:48;5.03;;;1.60;;
20042;SDS011;10182;52.896;6.496;2022-08-01T18:07:49;5.80;;;1.53;;
20042;SDS011;10182;52.896;6.496;2022-08-01T18:12:51;4.90;;;1.67;;
20042;SDS011;10182;52.896;6.496;2022-08-01T18:17:54;4.17;;;1.80;;
20042;SDS011;10182;52.896;6.496;2022-08-01T18:22:57;7.03;;;1.93;;
20042;SDS011;10182;52.896;6.496;2022-08-01T18:27:58;4.80;;;1.73;;
20042;SDS011;10182;52.896;6.496;2022-08-01T18:33:01;5.90;;;2.00;;
20042;SDS011;10182;52.896;6.496;2022-08-01T18:38:03;6.73;;;1.90;;
20042;SDS011;10182;52.896;6.496;2022-08-01T18:43:05;6.17;;;2.07;;
20042;SDS011;10182;52.896;6.496;2022-08-01T18:48:08;7.47;;;1.97;;
20042;SDS011;10182;52.896;6.496;2022-08-01T18:53:10;5.40;;;2.17;;
20042;SDS011;10182;52.896;6.496;2022-08-01T18:58:11;7.20;;;2.07;;
20042;SDS011;10182;52.896;6.496;2022-08-01T19:03:14;6.63;;;1.93;;
20042;SDS011;10182;52.896;6.496;2022-08-01T19:08:19;8.00;;;2.27;;
20042;SDS011;10182;52.896;6.496;2022-08-01T19:13:21;7.83;;;2.37;;
20042;SDS011;10182;52.896;6.496;2022-08-01T19:18:26;8.40;;;2.20;;
20042;SDS011;10182;52.896;6.496;2022-08-01T19:23:28;9.60;;;2.63;;
20042;SDS011;10182;52.896;6.496;2022-08-01T19:28:50;7.30;;;2.10;;
20042;SDS011;10182;52.896;6.496;2022-08-01T19:33:55;9.03;;;2.30;;
20042;SDS011;10182;52.896;6.496;2022-08-01T19:38:57;5.97;;;2.20;;
20042;SDS011;10182;52.896;6.496;2022-08-01T19:44:01;6.70;;;2.10;;
20042;SDS011;10182;52.896;6.496;2022-08-01T19:49:07;6.10;;;2.23;;
20042;SDS011;10182;52.896;6.496;2022-08-01T19:54:12;9.03;;;2.27;;
20042;SDS011;10182;52.896;6.496;2022-08-01T19:59:16;8.27;;;1.97;;
20042;SDS011;10182;52.896;6.496;2022-08-01T20:04:20;7.00;;;2.47;;
20042;SDS011;10182;52.896;6.496;2022-08-01T20:09:22;7.23;;;2.60;;
20042;SDS011;10182;52.896;6.496;2022-08-01T20:14:25;5.47;;;2.33;;
20042;SDS011;10182;52.896;6.496;2022-08-01T20:19:28;10.23;;;2.77;;
20042;SDS011;10182;52.896;6.496;2022-08-01T20:24:34;9.17;;;2.27;;
20042;SDS011;10182;52.896;6.496;2022-08-01T20:29:37;7.30;;;1.80;;
20042;SDS011;10182;52.896;6.496;2022-08-01T20:34:41;6.90;;;2.17;;
20042;SDS011;10182;52.896;6.496;2022-08-01T20:39:44;7.93;;;2.33;;
20042;SDS011;10182;52.896;6.496;2022-08-01T20:44:47;10.20;;;2.23;;
20042;SDS011;10182;52.896;6.496;2022-08-01T20:49:51;9.60;;;2.90;;
20042;SDS011;10182;52.896;6.496;2022-08-01T20:55:14;6.57;;;2.23;;
20042;SDS011;10182;52.896;6.496;2022-08-01T21:00:16;8.67;;;2.77;;
20042;SDS011;10182;52.896;6.496;2022-08-01T21:05:23;7.17;;;2.30;;
20042;SDS011;10182;52.896;6.496;2022-08-01T21:10:28;5.00;;;2.30;;
20042;SDS011;10182;52.896;6.496;2022-08-01T21:15:33;7.87;;;2.80;;
20042;SDS011;10182;52.896;6.496;2022-08-01T21:20:42;7.97;;;2.43;;
20042;SDS011;10182;52.896;6.496;2022-08-01T21:25:53;10.40;;;2.60;;
20042;SDS011;10182;52.896;6.496;2022-08-01T21:30:58;9.53;;;2.60;;
20042;SDS011;10182;52.896;6.496;2022-08-01T21:36:01;5.13;;;2.50;;
20042;SDS011;10182;52.896;6.496;2022-08-01T21:41:03;7.93;;;3.23;;
20042;SDS011;10182;52.896;6.496;2022-08-01T21:46:07;4.90;;;2.90;;
20042;SDS011;10182;52.896;6.496;2022-08-01T21:51:13;6.60;;;3.27;;
20042;SDS011;10182;52.896;6.496;2022-08-01T21:56:25;6.47;;;2.87;;
20042;SDS011;10182;52.896;6.496;2022-08-01T22:01:37;6.40;;;2.73;;
20042;SDS011;10182;52.896;6.496;2022-08-01T22:06:44;5.67;;;3.00;;
20042;SDS011;10182;52.896;6.496;2022-08-01T22:11:48;9.57;;;2.90;;
20042;SDS011;10182;52.896;6.496;2022-08-01T22:16:52;5.50;;;2.70;;
20042;SDS011;10182;52.896;6.496;2022-08-01T22:21:55;8.03;;;3.23;;
20042;SDS011;10182;52.896;6.496;2022-08-01T22:26:57;7.30;;;3.10;;
20042;SDS011;10182;52.896;6.496;2022-08-01T22:32:04;8.90;;;3.07;;
20042;SDS011;10182;52.896;6.496;2022-08-01T22:37:09;9.53;;;3.27;;
20042;SDS011;10182;52.896;6.496;2022-08-01T22:42:11;7.67;;;3.37;;
20042;SDS011;10182;52.896;6.496;2022-08-01T22:47:14;9.30;;;3.77;;
20042;SDS011;10182;52.896;6.496;2022-08-01T22:52:28;4.77;;;3.23;;
20042;SDS011;10182;52.896;6.496;2022-08-01T22:57:34;8.00;;;3.77;;
20042;SDS011;10182;52.896;6.496;2022-08-01T23:02:43;5.37;;;2.80;;
20042;SDS011;10182;52.896;6.496;2022-08-01T23:07:50;7.50;;;3.10;;
20042;SDS011;10182;52.896;6.496;2022-08-01T23:12:53;12.80;;;3.27;;
20042;SDS011;10182;52.896;6.496;2022-08-01T23:17:56;9.47;;;4.00;;
20042;SDS011;10182;52.896;6.496;2022-08-01T23:23:00;8.80;;;3.57;;
20042;SDS011;10182;52.896;6.496;2022-08-01T23:28:03;8.33;;;4.63;;
20042;SDS011;10182;52.896;6.496;2022-08-01T23:33:05;6.63;;;3.50;;
20042;SDS011;10182;52.896;6.496;2022-08-01T23:38:08;10.10;;;3.87;;
20042;SDS011;10182;52.896;6.496;2022-08-01T23:43:10;7.37;;;3.63;;
20042;SDS011;10182;52.896;6.496;2022-08-01T23:48:12;8.40;;;4.20;;
20042;SDS011;10182;52.896;6.496;2022-08-01T23:53:15;5.67;;;4.27;;
20042;SDS011;10182;52.896;6.496;2022-08-01T23:58:16;8.47;;;4.20;;
